Time;durP1;ratioP1;P1;durP2;ratioP2;P2;SDS_P1;SDS_P2;PMS_P1;PMS_P2;Temp;Humidity;BMP_temperature;BMP_pressure;BME280_temperature;BME280_humidity;BME280_pressure;Samples;Min_cycle;Max_cycle;Signal;HPM_P1;HPM_P2
2021/04/08 00:02:18;;;;;;;1.37;0.50;;;7.80;99.90;;;;;;5115618;28;20235;-92
2021/04/08 00:04:49;;;;;;;1.00;0.50;;;7.80;99.90;;;;;;5118244;28;20292;-92
2021/04/08 00:07:24;;;;;;;1.43;1.00;;;7.70;99.90;;;;;;5116345;28;20203;-92
2021/04/08 00:09:55;;;;;;;0.77;0.50;;;7.80;99.90;;;;;;5117943;28;20237;-92
2021/04/08 00:12:26;;;;;;;0.87;0.50;;;7.80;99.90;;;;;;5117286;28;20553;-92
2021/04/08 00:14:56;;;;;;;1.27;0.50;;;7.80;99.90;;;;;;5123743;28;20205;-91
2021/04/08 00:17:29;;;;;;;1.17;0.40;;;7.80;99.90;;;;;;5133531;28;20202;-91
2021/04/08 00:20:00;;;;;;;2.33;0.50;;;7.80;99.90;;;;;;5127348;28;20218;-91
2021/04/08 00:22:30;;;;;;;1.33;0.40;;;7.80;99.90;;;;;;5118433;28;20203;-92
2021/04/08 00:25:02;;;;;;;1.10;0.57;;;7.80;99.90;;;;;;5123550;28;20535;-93
2021/04/08 00:27:33;;;;;;;1.87;0.73;;;7.80;99.90;;;;;;5124180;28;20275;-92
2021/04/08 00:30:03;;;;;;;0.93;0.40;;;7.80;99.90;;;;;;5121233;28;20981;-91
2021/04/08 00:32:36;;;;;;;1.77;0.53;;;8.00;99.90;;;;;;5122449;28;20202;-90
2021/04/08 00:35:08;;;;;;;0.70;0.50;;;8.00;99.90;;;;;;5122120;28;20221;-90
2021/04/08 00:37:40;;;;;;;0.93;0.57;;;8.00;99.90;;;;;;5121308;28;20231;-91
2021/04/08 00:40:13;;;;;;;0.73;0.40;;;8.10;99.90;;;;;;5126078;28;20228;-90
2021/04/08 00:42:46;;;;;;;0.57;0.50;;;8.00;99.90;;;;;;5123556;27;20206;-90
2021/04/08 00:45:18;;;;;;;0.47;0.40;;;7.90;99.90;;;;;;5125654;28;20240;-91
2021/04/08 00:47:50;;;;;;;0.40;0.37;;;8.00;99.90;;;;;;5121644;28;20682;-91
2021/04/08 00:50:22;;;;;;;1.43;0.40;;;8.00;99.90;;;;;;5124058;27;20251;-90
2021/04/08 00:52:57;;;;;;;0.70;0.40;;;7.90;99.90;;;;;;5124835;28;20211;-89
2021/04/08 00:55:31;;;;;;;0.50;0.37;;;8.00;99.90;;;;;;5128966;28;20240;-91
2021/04/08 00:58:04;;;;;;;1.00;0.43;;;8.00;99.90;;;;;;5130989;28;20247;-90
2021/04/08 01:00:38;;;;;;;0.23;0.20;;;8.00;99.90;;;;;;5139790;28;20252;-91
2021/04/08 01:03:12;;;;;;;0.63;0.40;;;8.00;99.90;;;;;;5140499;28;20206;-91
2021/04/08 01:05:43;;;;;;;0.50;0.40;;;8.00;99.90;;;;;;5138870;28;20227;-92
2021/04/08 01:08:14;;;;;;;2.17;0.70;;;8.00;99.90;;;;;;5139666;28;20201;-92
2021/04/08 01:10:46;;;;;;;1.53;0.40;;;7.90;99.90;;;;;;5139110;28;20271;-92
2021/04/08 01:13:19;;;;;;;0.67;0.47;;;7.90;99.90;;;;;;5136775;27;20214;-92
2021/04/08 01:15:51;;;;;;;1.03;0.40;;;7.90;99.90;;;;;;5123791;28;20218;-92
2021/04/08 01:18:47;;;;;;;0.50;0.40;;;7.90;99.90;;;;;;5132722;28;20198;-91
2021/04/08 01:21:37;;;;;;;1.03;0.60;;;7.90;99.90;;;;;;5129007;28;20215;-92
2021/04/08 01:24:45;;;;;;;0.60;0.30;;;7.90;99.90;;;;;;5125920;28;20210;-91
2021/04/08 01:27:36;;;;;;;1.30;0.33;;;7.80;99.90;;;;;;5118161;28;20269;-93
2021/04/08 01:30:35;;;;;;;2.53;0.43;;;7.70;99.90;;;;;;5121157;28;20207;-90
2021/04/08 01:33:11;;;;;;;0.87;0.30;;;7.80;99.90;;;;;;5117243;28;20236;-91
2021/04/08 01:35:45;;;;;;;0.67;0.30;;;7.80;99.90;;;;;;5119330;28;20666;-90
2021/04/08 01:38:21;;;;;;;1.13;0.70;;;7.80;99.90;;;;;;5118084;28;20202;-90
2021/04/08 01:40:54;;;;;;;0.70;0.40;;;7.80;99.90;;;;;;5119134;28;20319;-90
2021/04/08 01:43:30;;;;;;;2.40;0.60;;;7.80;99.90;;;;;;5119114;28;20202;-91
2021/04/08 01:46:01;;;;;;;3.13;0.50;;;7.90;99.90;;;;;;5119376;28;20202;-90
2021/04/08 01:48:38;;;;;;;1.00;0.90;;;7.80;99.90;;;;;;5118443;28;20291;-91
2021/04/08 01:51:11;;;;;;;0.80;0.50;;;7.80;99.90;;;;;;5117596;28;20576;-91
2021/04/08 01:53:50;;;;;;;1.07;0.40;;;7.80;99.90;;;;;;5118280;28;20213;-90
2021/04/08 01:56:24;;;;;;;1.33;0.53;;;7.90;99.90;;;;;;5118279;28;20299;-91
2021/04/08 01:58:56;;;;;;;1.40;0.30;;;7.90;99.90;;;;;;5118983;28;20535;-91
2021/04/08 02:01:29;;;;;;;0.83;0.57;;;7.90;99.90;;;;;;5119398;28;20273;-91
2021/04/08 02:04:04;;;;;;;2.10;0.50;;;7.80;99.90;;;;;;5119026;28;20203;-92
2021/04/08 02:06:36;;;;;;;2.83;0.40;;;7.80;99.90;;;;;;5118913;28;20621;-93
2021/04/08 02:09:11;;;;;;;1.13;0.30;;;7.70;99.90;;;;;;5120068;28;20282;-92
2021/04/08 02:11:47;;;;;;;0.23;0.23;;;7.80;99.90;;;;;;5119994;28;20201;-91
2021/04/08 02:14:19;;;;;;;0.37;0.20;;;7.70;99.90;;;;;;5119714;28;20197;-91
2021/04/08 02:16:51;;;;;;;0.40;0.30;;;7.80;99.90;;;;;;5120767;28;20206;-93
2021/04/08 02:19:25;;;;;;;0.43;0.20;;;7.70;99.90;;;;;;5121114;28;20749;-93
2021/04/08 02:21:56;;;;;;;0.73;0.30;;;7.70;99.90;;;;;;5120856;28;20209;-92
2021/04/08 02:24:29;;;;;;;0.50;0.40;;;7.70;99.90;;;;;;5123809;28;20236;-92
2021/04/08 02:27:02;;;;;;;0.50;0.30;;;7.60;99.90;;;;;;5122832;28;20208;-92
2021/04/08 02:29:34;;;;;;;1.50;0.30;;;7.60;99.90;;;;;;5122255;28;20212;-91
2021/04/08 02:32:05;;;;;;;0.80;0.30;;;7.60;99.90;;;;;;5120863;27;20227;-92
2021/04/08 02:34:39;;;;;;;1.43;0.60;;;7.60;99.90;;;;;;5124925;28;20218;-90
2021/04/08 02:37:09;;;;;;;2.73;0.40;;;7.60;99.90;;;;;;5125880;28;20210;-89
2021/04/08 02:39:40;;;;;;;1.13;0.70;;;7.60;99.90;;;;;;5126540;28;20260;-92
2021/04/08 02:42:12;;;;;;;2.20;0.50;;;7.60;99.90;;;;;;5126392;28;20210;-90
2021/04/08 02:44:44;;;;;;;1.23;0.50;;;7.60;99.90;;;;;;5123925;27;20202;-90
2021/04/08 02:47:17;;;;;;;1.00;0.40;;;7.60;99.90;;;;;;5104464;28;20380;-90
2021/04/08 02:49:50;;;;;;;2.20;0.53;;;7.50;99.90;;;;;;5104727;28;20211;-90
2021/04/08 02:52:26;;;;;;;1.63;0.40;;;7.50;99.90;;;;;;5103148;28;20195;-92
2021/04/08 02:55:04;;;;;;;0.80;0.50;;;7.50;99.90;;;;;;5103011;28;20206;-92
2021/04/08 02:57:40;;;;;;;0.53;0.40;;;7.50;99.90;;;;;;5101063;28;20206;-91
2021/04/08 03:00:19;;;;;;;0.50;0.50;;;7.40;99.90;;;;;;5099380;28;20230;-93
2021/04/08 03:02:55;;;;;;;0.67;0.30;;;7.40;99.90;;;;;;5099129;28;20203;-91
2021/04/08 03:05:33;;;;;;;1.70;0.30;;;7.40;99.90;;;;;;5100908;28;20281;-93
2021/04/08 03:08:11;;;;;;;2.77;0.73;;;7.30;99.90;;;;;;5092012;28;20739;-92
2021/04/08 03:10:47;;;;;;;0.70;0.40;;;7.40;99.90;;;;;;5111677;28;20209;-92
2021/04/08 03:13:23;;;;;;;1.37;0.50;;;7.40;99.90;;;;;;5102980;28;20660;-92
2021/04/08 03:15:54;;;;;;;0.47;0.40;;;7.40;99.90;;;;;;5101484;28;20206;-91
2021/04/08 03:18:27;;;;;;;2.20;0.50;;;7.30;99.90;;;;;;5116959;28;20544;-90
2021/04/08 03:21:03;;;;;;;0.63;0.40;;;7.30;99.90;;;;;;5120919;28;20226;-91
2021/04/08 03:23:35;;;;;;;1.00;0.50;;;7.30;99.90;;;;;;5120341;28;20205;-92
2021/04/08 03:26:09;;;;;;;1.13;0.60;;;7.30;99.90;;;;;;5122918;28;20202;-93
2021/04/08 03:28:42;;;;;;;0.50;0.30;;;7.30;99.90;;;;;;5126512;28;20232;-90
2021/04/08 03:31:15;;;;;;;1.73;0.60;;;7.30;99.90;;;;;;5128595;28;20210;-89
2021/04/08 03:33:46;;;;;;;1.40;0.50;;;7.20;99.90;;;;;;5130619;28;20205;-88
2021/04/08 03:36:20;;;;;;;1.80;0.50;;;7.20;99.90;;;;;;5123335;28;20214;-92
2021/04/08 03:38:52;;;;;;;1.27;0.40;;;7.20;99.90;;;;;;5120579;28;20675;-93
2021/04/08 03:41:30;;;;;;;3.20;0.40;;;7.20;99.90;;;;;;5120724;28;20221;-92
2021/04/08 03:44:03;;;;;;;2.13;0.50;;;7.20;99.90;;;;;;5118800;28;20677;-92
2021/04/08 03:46:35;;;;;;;3.10;0.40;;;7.20;99.90;;;;;;5117703;28;20203;-91
2021/04/08 03:49:15;;;;;;;0.70;0.40;;;7.20;99.90;;;;;;5116659;28;21024;-91
2021/04/08 03:51:49;;;;;;;2.03;1.00;;;7.20;99.90;;;;;;5116468;28;20234;-92
2021/04/08 03:54:22;;;;;;;1.03;0.60;;;7.20;99.90;;;;;;5118165;28;20571;-92
2021/04/08 03:56:55;;;;;;;1.07;0.50;;;7.20;99.90;;;;;;5120726;28;20210;-92
2021/04/08 03:59:28;;;;;;;0.80;0.40;;;7.20;99.90;;;;;;5119438;28;20250;-92
2021/04/08 04:02:01;;;;;;;0.73;0.60;;;7.20;99.90;;;;;;5118484;28;20202;-91
2021/04/08 04:04:33;;;;;;;2.10;0.53;;;7.20;99.90;;;;;;5121126;28;20209;-91
2021/04/08 04:07:09;;;;;;;0.60;0.57;;;7.20;99.90;;;;;;5119901;28;20274;-92
2021/04/08 04:09:47;;;;;;;0.40;0.40;;;7.20;99.90;;;;;;5118831;28;20251;-91
2021/04/08 04:12:22;;;;;;;0.63;0.50;;;7.20;99.90;;;;;;5121128;28;20661;-92
2021/04/08 04:15:04;;;;;;;1.60;0.60;;;7.20;99.90;;;;;;5123664;28;20633;-91
2021/04/08 04:17:43;;;;;;;1.33;0.43;;;7.20;99.90;;;;;;5120043;28;20239;-92
2021/04/08 04:20:15;;;;;;;0.73;0.37;;;7.20;99.90;;;;;;5117988;28;20230;-91
2021/04/08 04:22:51;;;;;;;0.40;0.40;;;7.20;99.90;;;;;;5116686;28;20206;-92
2021/04/08 04:25:30;;;;;;;1.27;0.50;;;7.20;99.90;;;;;;5115512;28;20240;-91
2021/04/08 04:28:01;;;;;;;0.73;0.30;;;7.20;99.90;;;;;;5116817;28;20230;-91
2021/04/08 04:30:34;;;;;;;2.47;0.30;;;7.20;99.90;;;;;;5104854;28;20294;-92
2021/04/08 04:33:07;;;;;;;2.50;0.50;;;7.20;99.90;;;;;;5098082;28;20210;-91
2021/04/08 04:35:40;;;;;;;0.43;0.30;;;7.20;99.90;;;;;;5101015;28;20218;-92
2021/04/08 04:38:13;;;;;;;0.80;0.33;;;7.20;99.90;;;;;;5102447;28;20867;-91
2021/04/08 04:40:44;;;;;;;1.50;0.40;;;7.20;99.90;;;;;;5100935;28;20223;-92
2021/04/08 04:43:14;;;;;;;0.60;0.50;;;7.20;99.90;;;;;;5102146;28;20242;-92
2021/04/08 04:45:45;;;;;;;0.60;0.43;;;7.20;99.90;;;;;;5099958;28;20239;-91
2021/04/08 04:48:15;;;;;;;0.60;0.40;;;7.20;99.90;;;;;;5103636;28;20215;-92
2021/04/08 04:50:46;;;;;;;2.40;0.40;;;7.20;99.90;;;;;;5098949;28;20207;-91
2021/04/08 04:53:18;;;;;;;4.77;0.70;;;7.20;99.90;;;;;;5115038;28;20217;-92
2021/04/08 04:55:50;;;;;;;0.30;0.23;;;7.20;99.90;;;;;;5119546;28;20237;-91
2021/04/08 04:58:22;;;;;;;0.50;0.20;;;7.10;99.90;;;;;;5117840;28;20228;-92
2021/04/08 05:00:52;;;;;;;1.87;0.57;;;7.20;99.90;;;;;;5119419;28;20271;-92
2021/04/08 05:03:23;;;;;;;0.20;0.20;;;7.20;99.90;;;;;;5119790;28;20202;-92
2021/04/08 05:05:55;;;;;;;3.70;0.70;;;7.20;99.90;;;;;;5099199;28;20203;-90
2021/04/08 05:08:30;;;;;;;0.77;0.40;;;7.20;99.90;;;;;;5098280;28;20220;-92
2021/04/08 05:11:04;;;;;;;0.83;0.40;;;7.10;99.90;;;;;;5098807;28;20223;-90
2021/04/08 05:13:34;;;;;;;0.93;0.60;;;7.10;99.90;;;;;;5128026;28;20224;-91
2021/04/08 05:16:07;;;;;;;0.53;0.43;;;7.10;99.90;;;;;;5134014;28;20206;-92
2021/04/08 05:18:40;;;;;;;1.50;0.40;;;7.10;99.90;;;;;;5131513;28;20206;-92
2021/04/08 05:21:10;;;;;;;0.70;0.50;;;7.10;99.90;;;;;;5120071;28;20251;-91
2021/04/08 05:23:43;;;;;;;1.00;0.50;;;7.00;99.90;;;;;;5118677;28;20203;-91
2021/04/08 05:26:17;;;;;;;0.97;0.60;;;7.00;99.90;;;;;;5120471;28;20209;-90
2021/04/08 05:28:48;;;;;;;1.90;0.90;;;7.00;99.90;;;;;;5120455;28;20202;-91
2021/04/08 05:31:19;;;;;;;0.80;0.57;;;7.00;99.90;;;;;;5121180;28;20206;-91
2021/04/08 05:33:51;;;;;;;0.50;0.40;;;7.00;99.90;;;;;;5127568;28;20202;-92
2021/04/08 05:36:22;;;;;;;1.30;0.50;;;7.00;99.90;;;;;;5126609;28;20752;-92
2021/04/08 05:38:58;;;;;;;0.40;0.33;;;7.00;99.90;;;;;;5126003;28;20201;-92
2021/04/08 05:41:30;;;;;;;0.50;0.37;;;7.00;99.90;;;;;;5109233;28;20289;-92
2021/04/08 05:44:02;;;;;;;0.33;0.33;;;7.00;99.90;;;;;;5121665;28;20232;-91
2021/04/08 05:46:33;;;;;;;0.47;0.47;;;7.00;99.90;;;;;;5119311;28;20263;-92
2021/04/08 05:49:04;;;;;;;0.83;0.30;;;7.00;99.90;;;;;;5120173;27;20228;-92
2021/04/08 05:51:36;;;;;;;0.40;0.30;;;7.00;99.90;;;;;;5120665;28;20206;-92
2021/04/08 05:54:08;;;;;;;1.60;0.67;;;7.00;99.90;;;;;;5121221;28;20613;-92
2021/04/08 05:56:40;;;;;;;1.10;0.50;;;7.00;99.90;;;;;;5120523;28;20235;-92
2021/04/08 05:59:12;;;;;;;2.40;0.47;;;7.00;99.90;;;;;;5120031;28;20212;-92
2021/04/08 06:01:43;;;;;;;1.53;0.40;;;6.90;99.90;;;;;;5118785;28;20198;-93
2021/04/08 06:04:14;;;;;;;4.83;0.43;;;7.00;99.90;;;;;;5119610;28;20226;-91
2021/04/08 06:06:45;;;;;;;0.50;0.30;;;7.00;99.90;;;;;;5120273;28;20259;-91
2021/04/08 06:09:17;;;;;;;0.70;0.30;;;7.00;99.90;;;;;;5121240;28;20227;-91
2021/04/08 06:11:48;;;;;;;2.30;0.67;;;7.00;99.90;;;;;;5123163;28;20319;-91
2021/04/08 06:14:19;;;;;;;0.70;0.30;;;7.00;99.90;;;;;;5126847;28;20202;-91
2021/04/08 06:16:50;;;;;;;0.90;0.40;;;7.00;99.90;;;;;;5134774;28;20291;-92
2021/04/08 06:19:20;;;;;;;0.83;0.50;;;7.00;99.90;;;;;;5132368;28;20273;-90
2021/04/08 06:21:51;;;;;;;0.67;0.60;;;7.00;99.90;;;;;;5121534;28;20233;-91
2021/04/08 06:24:24;;;;;;;1.03;0.40;;;6.90;99.90;;;;;;5123153;27;20202;-91
2021/04/08 06:26:55;;;;;;;0.73;0.40;;;6.80;99.90;;;;;;5120742;28;20571;-90
2021/04/08 06:29:25;;;;;;;0.40;0.40;;;6.90;99.90;;;;;;5121896;27;20278;-91
2021/04/08 06:31:57;;;;;;;1.10;0.50;;;6.80;99.90;;;;;;5128253;28;20225;-91
2021/04/08 06:34:27;;;;;;;1.60;0.50;;;6.80;99.90;;;;;;5114502;28;20206;-93
2021/04/08 06:36:58;;;;;;;0.87;0.70;;;6.80;99.90;;;;;;5137099;28;20190;-91
2021/04/08 06:39:34;;;;;;;1.90;0.50;;;6.80;99.90;;;;;;5138489;28;20235;-91
2021/04/08 06:42:07;;;;;;;0.90;0.40;;;6.70;99.90;;;;;;5138772;28;20253;-92
2021/04/08 06:44:39;;;;;;;1.37;0.50;;;6.70;99.90;;;;;;5138781;27;20182;-92
2021/04/08 06:47:10;;;;;;;1.60;0.43;;;6.60;99.90;;;;;;5132280;28;20249;-91
2021/04/08 06:49:50;;;;;;;3.30;0.80;;;6.50;99.90;;;;;;5132777;28;20206;-91
2021/04/08 06:52:21;;;;;;;5.80;0.90;;;6.50;99.90;;;;;;5120280;28;20205;-92
2021/04/08 06:54:55;;;;;;;1.70;0.67;;;6.40;99.90;;;;;;5119606;28;20226;-91
2021/04/08 06:57:25;;;;;;;0.83;0.50;;;6.30;99.90;;;;;;5123687;28;20595;-91
2021/04/08 06:59:59;;;;;;;4.00;0.60;;;6.30;99.90;;;;;;5119911;28;20584;-92
2021/04/08 07:02:31;;;;;;;2.10;0.90;;;6.20;99.90;;;;;;5103595;28;20275;-91
2021/04/08 07:05:02;;;;;;;3.20;0.60;;;6.10;99.90;;;;;;5121056;28;20211;-92
2021/04/08 07:07:33;;;;;;;4.83;0.70;;;6.00;99.90;;;;;;5126912;28;20193;-92
2021/04/08 07:10:07;;;;;;;2.47;0.60;;;5.90;99.90;;;;;;5118468;28;20202;-91
2021/04/08 07:12:38;;;;;;;2.20;0.70;;;5.80;99.90;;;;;;5118088;28;20218;-91
2021/04/08 07:15:09;;;;;;;0.90;0.50;;;5.80;99.90;;;;;;5103509;28;20230;-92
2021/04/08 07:17:40;;;;;;;1.27;0.50;;;5.70;99.90;;;;;;5117900;28;20222;-90
2021/04/08 07:20:11;;;;;;;0.80;0.70;;;5.70;99.90;;;;;;5118394;28;20237;-91
2021/04/08 07:22:42;;;;;;;0.70;0.57;;;5.60;99.90;;;;;;5118367;28;20297;-91
2021/04/08 07:25:19;;;;;;;1.00;0.40;;;5.60;99.90;;;;;;5125894;28;20235;-92
2021/04/08 07:27:49;;;;;;;1.30;0.60;;;5.50;99.90;;;;;;5134066;28;20190;-91
2021/04/08 07:30:22;;;;;;;1.27;0.60;;;5.50;99.90;;;;;;5130899;28;20274;-91
2021/04/08 07:33:01;;;;;;;0.63;0.50;;;5.60;99.90;;;;;;5122733;28;20255;-91
2021/04/08 07:35:45;;;;;;;1.20;0.40;;;5.50;99.90;;;;;;5118781;27;20240;-92
2021/04/08 07:38:15;;;;;;;1.10;0.70;;;5.50;99.90;;;;;;5118627;28;20612;-92
2021/04/08 07:41:02;;;;;;;1.20;0.67;;;5.50;99.90;;;;;;5118481;28;20308;-91
2021/04/08 07:43:33;;;;;;;1.33;0.40;;;5.50;99.90;;;;;;5120383;28;20224;-92
2021/04/08 07:46:37;;;;;;;5.57;0.60;;;5.50;99.90;;;;;;5121041;28;20231;-92
2021/04/08 07:49:26;;;;;;;2.40;0.63;;;5.50;99.90;;;;;;5120081;28;20209;-91
2021/04/08 07:51:58;;;;;;;0.40;0.40;;;5.50;99.90;;;;;;5118277;28;20282;-91
2021/04/08 07:54:28;;;;;;;1.47;0.40;;;5.60;99.90;;;;;;5118929;28;20445;-91
2021/04/08 07:57:06;;;;;;;1.23;0.47;;;5.50;99.90;;;;;;5121164;28;20205;-92
2021/04/08 07:59:37;;;;;;;1.50;0.30;;;5.50;99.90;;;;;;5118727;28;20247;-91
2021/04/08 08:02:08;;;;;;;0.70;0.33;;;5.50;99.90;;;;;;5114817;28;20228;-91
2021/04/08 08:04:39;;;;;;;2.00;0.43;;;5.50;99.90;;;;;;5120092;28;20210;-90
2021/04/08 08:07:26;;;;;;;0.63;0.30;;;5.60;99.90;;;;;;5115633;28;20236;-90
2021/04/08 08:10:02;;;;;;;0.20;0.20;;;5.60;99.90;;;;;;5115903;28;20250;-90
2021/04/08 08:12:35;;;;;;;1.07;0.30;;;5.60;99.90;;;;;;5118114;28;20202;-91
2021/04/08 08:15:18;;;;;;;0.40;0.40;;;5.60;99.90;;;;;;5120979;28;20219;-91
2021/04/08 08:17:49;;;;;;;0.53;0.30;;;5.60;99.90;;;;;;5115737;28;20206;-90
2021/04/08 08:20:21;;;;;;;0.27;0.23;;;5.60;99.90;;;;;;5117163;28;20233;-90
2021/04/08 08:22:52;;;;;;;2.77;0.47;;;5.60;99.90;;;;;;5121319;28;20194;-91
2021/04/08 08:25:28;;;;;;;0.77;0.50;;;5.70;99.90;;;;;;5120980;28;20201;-91
2021/04/08 08:28:01;;;;;;;0.70;0.50;;;5.70;99.90;;;;;;5119835;28;20217;-90
2021/04/08 08:30:51;;;;;;;1.00;0.50;;;5.70;99.90;;;;;;5117246;28;20206;-91
2021/04/08 08:33:26;;;;;;;2.50;0.40;;;5.70;99.90;;;;;;5121174;28;20205;-91
2021/04/08 08:36:00;;;;;;;0.87;0.37;;;5.80;99.90;;;;;;5121453;28;20206;-89
2021/04/08 08:38:30;;;;;;;1.33;0.50;;;5.90;99.90;;;;;;5119301;28;20202;-90
2021/04/08 08:41:01;;;;;;;0.63;0.30;;;5.90;99.90;;;;;;5117873;28;20251;-90
2021/04/08 08:43:34;;;;;;;0.40;0.23;;;5.90;99.90;;;;;;5116831;28;20199;-90
2021/04/08 08:46:05;;;;;;;1.47;0.47;;;5.90;99.90;;;;;;5117128;28;20688;-92
2021/04/08 08:48:37;;;;;;;0.80;0.60;;;5.90;99.90;;;;;;5116430;28;20234;-91
2021/04/08 08:51:08;;;;;;;1.53;0.50;;;6.00;99.90;;;;;;5116341;28;20248;-92
2021/04/08 08:53:39;;;;;;;0.67;0.30;;;6.00;99.90;;;;;;5116799;28;20275;-91
2021/04/08 08:56:13;;;;;;;0.67;0.40;;;6.00;99.90;;;;;;5115693;28;20238;-94
2021/04/08 08:58:46;;;;;;;0.20;0.20;;;5.80;99.90;;;;;;5116823;28;20213;-92
2021/04/08 09:01:17;;;;;;;0.30;0.30;;;5.30;99.90;;;;;;5120302;28;20365;-91
2021/04/08 09:03:48;;;;;;;0.13;0.13;;;5.00;99.90;;;;;;5119324;28;20202;-91
2021/04/08 09:06:21;;;;;;;0.97;0.40;;;4.70;99.90;;;;;;5119382;27;20811;-91
2021/04/08 09:08:55;;;;;;;0.33;0.20;;;4.50;99.90;;;;;;5119621;28;20202;-90
2021/04/08 09:11:30;;;;;;;0.30;0.20;;;4.40;99.90;;;;;;5119455;28;20232;-91
2021/04/08 09:14:04;;;;;;;0.43;0.30;;;4.30;99.90;;;;;;5119523;28;20208;-90
2021/04/08 09:16:44;;;;;;;1.03;0.50;;;4.20;99.90;;;;;;5119207;28;20235;-90
2021/04/08 09:19:15;;;;;;;0.77;0.27;;;4.20;99.90;;;;;;5120028;27;20301;-92
2021/04/08 09:21:48;;;;;;;1.20;0.30;;;4.20;99.90;;;;;;5119993;28;20697;-91
2021/04/08 09:24:21;;;;;;;1.10;0.20;;;4.20;99.90;;;;;;5120497;28;20206;-92
2021/04/08 09:27:01;;;;;;;1.67;0.20;;;4.10;99.90;;;;;;5123164;28;20234;-91
2021/04/08 09:29:56;;;;;;;0.20;0.10;;;4.10;99.90;;;;;;5138827;28;20206;-91
2021/04/08 09:32:35;;;;;;;0.37;0.30;;;4.00;99.90;;;;;;5132834;27;20198;-89
2021/04/08 09:35:18;;;;;;;0.40;0.27;;;3.90;99.90;;;;;;5125828;28;20274;-90
2021/04/08 09:38:22;;;;;;;1.53;0.30;;;3.90;99.90;;;;;;5121575;28;20217;-89
2021/04/08 09:41:03;;;;;;;0.47;0.47;;;3.90;99.90;;;;;;5125451;28;20230;-90
2021/04/08 09:43:35;;;;;;;1.73;0.50;;;3.90;99.90;;;;;;5123821;28;20233;-92
2021/04/08 09:46:12;;;;;;;0.70;0.57;;;3.90;99.90;;;;;;5122978;27;20251;-91
2021/04/08 09:48:58;;;;;;;1.80;0.60;;;3.90;99.90;;;;;;5124559;27;20204;-92
2021/04/08 09:51:50;;;;;;;1.63;0.63;;;4.00;99.90;;;;;;5123027;28;20202;-92
2021/04/08 09:54:20;;;;;;;0.67;0.40;;;3.90;99.90;;;;;;5122908;27;20210;-91
2021/04/08 09:56:55;;;;;;;0.93;0.47;;;4.00;99.90;;;;;;5125097;27;20206;-91
2021/04/08 09:59:27;;;;;;;0.73;0.50;;;4.00;99.90;;;;;;5123802;28;20263;-90
2021/04/08 10:02:00;;;;;;;1.03;0.47;;;4.00;99.90;;;;;;5121613;28;20230;-91
2021/04/08 10:04:30;;;;;;;0.57;0.40;;;4.10;99.90;;;;;;5125651;28;20619;-91
2021/04/08 10:07:04;;;;;;;1.93;0.50;;;4.10;99.90;;;;;;5122107;28;20213;-90
2021/04/08 10:09:35;;;;;;;5.53;0.80;;;4.00;99.90;;;;;;5123176;28;20593;-91
2021/04/08 10:12:06;;;;;;;0.40;0.40;;;4.10;99.90;;;;;;5121564;28;20255;-90
2021/04/08 10:14:37;;;;;;;0.97;0.53;;;4.00;99.90;;;;;;5123007;28;20202;-91
2021/04/08 10:17:12;;;;;;;3.07;0.70;;;4.00;99.90;;;;;;5123808;28;20333;-90
2021/04/08 10:19:45;;;;;;;2.43;0.60;;;4.00;99.90;;;;;;5127244;28;20578;-90
2021/04/08 10:22:16;;;;;;;0.80;0.60;;;3.90;99.90;;;;;;5131071;28;20245;-90
2021/04/08 10:24:47;;;;;;;2.43;0.60;;;3.80;99.90;;;;;;5130355;28;20206;-92
2021/04/08 10:27:21;;;;;;;1.30;0.60;;;3.70;99.90;;;;;;5128685;28;20368;-92
2021/04/08 10:29:54;;;;;;;1.77;0.80;;;3.70;99.90;;;;;;5128313;27;20202;-92
2021/04/08 10:32:43;;;;;;;1.10;0.90;;;3.70;99.90;;;;;;5124124;28;20707;-92
2021/04/08 10:35:22;;;;;;;2.10;0.67;;;3.70;99.90;;;;;;5124468;28;20202;-91
2021/04/08 10:38:03;;;;;;;1.00;0.80;;;3.80;99.90;;;;;;5121269;27;20227;-91
2021/04/08 10:40:35;;;;;;;0.70;0.57;;;3.90;99.90;;;;;;5120452;28;20222;-92
2021/04/08 10:43:12;;;;;;;1.67;0.90;;;3.80;99.90;;;;;;5118363;28;20218;-90
2021/04/08 10:45:53;;;;;;;0.90;0.70;;;3.80;99.90;;;;;;5118520;28;20225;-93
2021/04/08 10:48:27;;;;;;;3.47;0.93;;;3.70;99.90;;;;;;5121473;28;20234;-91
2021/04/08 10:50:58;;;;;;;1.63;0.90;;;3.70;99.90;;;;;;5119942;28;20198;-93
2021/04/08 10:53:29;;;;;;;1.67;0.80;;;3.70;99.90;;;;;;5120819;28;20183;-93
2021/04/08 10:56:09;;;;;;;2.50;1.00;;;3.70;99.90;;;;;;5098883;27;20238;-92
2021/04/08 10:58:40;;;;;;;1.77;1.00;;;3.80;99.90;;;;;;5100827;28;20206;-90
2021/04/08 11:01:11;;;;;;;1.00;0.87;;;3.90;99.90;;;;;;5120761;28;20233;-91
2021/04/08 11:03:43;;;;;;;1.50;1.00;;;3.90;99.90;;;;;;5118757;28;20255;-91
2021/04/08 11:06:24;;;;;;;1.20;0.83;;;3.90;99.90;;;;;;5120607;28;20202;-91
2021/04/08 11:08:55;;;;;;;2.43;0.90;;;3.90;99.90;;;;;;5120216;28;20210;-91
2021/04/08 11:11:26;;;;;;;1.80;0.87;;;3.90;99.90;;;;;;5119794;28;20539;-91
2021/04/08 11:13:57;;;;;;;2.33;0.90;;;3.80;99.90;;;;;;5124383;28;20550;-92
2021/04/08 11:16:30;;;;;;;0.77;0.73;;;3.80;99.90;;;;;;5125357;28;20218;-91
2021/04/08 11:19:05;;;;;;;1.17;0.80;;;3.80;99.90;;;;;;5121776;28;20198;-91
2021/04/08 11:21:36;;;;;;;1.27;1.13;;;3.70;99.90;;;;;;5119402;28;20357;-93
2021/04/08 11:24:08;;;;;;;2.13;1.00;;;3.70;99.90;;;;;;5119579;28;20210;-92
2021/04/08 11:26:49;;;;;;;1.70;1.00;;;3.70;99.90;;;;;;5119317;28;20216;-90
2021/04/08 11:29:25;;;;;;;2.77;1.03;;;3.80;99.90;;;;;;5122978;28;20217;-91
2021/04/08 11:32:02;;;;;;;1.63;1.17;;;3.80;99.90;;;;;;5124644;27;20206;-91
2021/04/08 11:34:45;;;;;;;1.07;0.87;;;3.70;99.90;;;;;;5101987;28;20205;-92
2021/04/08 11:37:17;;;;;;;4.30;1.20;;;3.80;99.90;;;;;;5135985;28;20242;-91
2021/04/08 11:39:49;;;;;;;2.27;1.20;;;3.90;99.90;;;;;;5134980;28;20250;-92
2021/04/08 11:42:22;;;;;;;1.73;1.20;;;4.00;99.90;;;;;;5124193;28;20248;-91
2021/04/08 11:44:56;;;;;;;1.20;1.10;;;4.00;99.90;;;;;;5117513;28;20231;-91
2021/04/08 11:47:27;;;;;;;1.60;1.20;;;4.10;99.90;;;;;;5116897;28;20217;-89
2021/04/08 11:49:59;;;;;;;2.03;1.20;;;4.20;99.90;;;;;;5117919;28;20206;-91
2021/04/08 11:52:30;;;;;;;1.27;1.17;;;4.10;99.90;;;;;;5118236;28;20237;-90
2021/04/08 11:55:09;;;;;;;1.80;1.20;;;4.20;99.90;;;;;;5118885;28;20206;-90
2021/04/08 11:57:54;;;;;;;4.00;1.43;;;4.10;99.90;;;;;;5118444;28;20315;-91
2021/04/08 12:00:29;;;;;;;0.90;0.90;;;4.10;99.90;;;;;;5119182;28;20698;-90
2021/04/08 12:03:13;;;;;;;2.17;1.17;;;3.90;99.90;;;;;;5120023;28;20209;-90
2021/04/08 12:05:46;;;;;;;1.43;1.30;;;4.00;99.90;;;;;;5120767;28;20202;-91
2021/04/08 12:08:45;;;;;;;2.20;1.07;;;4.10;99.90;;;;;;5121028;28;20638;-91
2021/04/08 12:11:18;;;;;;;2.57;1.20;;;4.10;99.90;;;;;;5129041;28;20202;-89
2021/04/08 12:14:03;;;;;;;4.30;1.23;;;4.20;99.90;;;;;;5136061;28;20210;-90
2021/04/08 12:16:35;;;;;;;2.37;1.10;;;4.20;99.90;;;;;;5135549;28;20190;-90
2021/04/08 12:19:07;;;;;;;1.33;1.10;;;4.10;99.90;;;;;;5126062;28;20205;-91
2021/04/08 12:21:58;;;;;;;1.57;1.00;;;4.10;99.90;;;;;;5115913;28;20264;-91
2021/04/08 12:24:30;;;;;;;1.33;0.97;;;4.20;99.90;;;;;;5115844;28;20199;-89
2021/04/08 12:27:01;;;;;;;2.70;1.30;;;4.20;99.90;;;;;;5114454;28;20194;-90
2021/04/08 12:29:32;;;;;;;1.77;1.13;;;4.20;99.90;;;;;;5107265;28;20297;-91
2021/04/08 12:32:05;;;;;;;2.43;1.03;;;4.20;99.90;;;;;;5097954;28;20290;-90
2021/04/08 12:34:38;;;;;;;1.70;1.30;;;4.30;99.90;;;;;;5098860;28;20206;-91
2021/04/08 12:37:13;;;;;;;1.87;1.13;;;4.30;99.90;;;;;;5104825;28;20665;-91
2021/04/08 12:39:44;;;;;;;1.10;0.90;;;4.30;99.90;;;;;;5102221;28;20206;-92
2021/04/08 12:42:15;;;;;;;0.90;0.90;;;4.30;99.90;;;;;;5101883;28;20260;-91
2021/04/08 12:44:45;;;;;;;0.90;0.90;;;4.30;99.90;;;;;;5100389;28;20226;-92
2021/04/08 12:47:16;;;;;;;0.97;0.77;;;4.20;99.90;;;;;;5100502;28;20249;-91
2021/04/08 12:49:47;;;;;;;2.23;0.80;;;4.20;99.90;;;;;;5103603;28;20274;-91
2021/04/08 12:52:19;;;;;;;2.33;0.70;;;4.20;99.90;;;;;;5104884;28;20207;-91
2021/04/08 12:54:50;;;;;;;1.47;0.70;;;4.20;99.90;;;;;;5100146;28;20245;-92
2021/04/08 12:57:21;;;;;;;1.23;0.70;;;4.10;99.90;;;;;;5099292;28;20203;-91
2021/04/08 12:59:53;;;;;;;1.03;0.93;;;4.10;99.90;;;;;;5120259;28;20259;-91
2021/04/08 13:02:23;;;;;;;1.90;0.80;;;3.90;99.90;;;;;;5121984;27;20702;-90
2021/04/08 13:04:54;;;;;;;2.87;0.90;;;3.90;99.90;;;;;;5122236;28;20230;-90
2021/04/08 13:07:27;;;;;;;1.67;1.10;;;3.90;99.90;;;;;;5120561;28;20214;-91
2021/04/08 13:09:57;;;;;;;3.73;1.30;;;3.90;99.90;;;;;;5119648;27;20666;-90
2021/04/08 13:12:28;;;;;;;2.80;1.20;;;3.80;99.90;;;;;;5118564;28;20621;-91
2021/04/08 13:14:59;;;;;;;0.97;0.87;;;3.80;99.90;;;;;;5119223;28;20487;-90
2021/04/08 13:17:30;;;;;;;2.73;1.27;;;3.80;99.90;;;;;;5117569;28;20263;-90
2021/04/08 13:20:01;;;;;;;1.10;0.80;;;3.90;99.90;;;;;;5119456;28;20731;-91
2021/04/08 13:22:34;;;;;;;2.73;1.13;;;3.90;99.90;;;;;;5123369;27;20234;-91
2021/04/08 13:25:08;;;;;;;2.27;1.00;;;3.80;99.90;;;;;;5121525;28;20203;-90
2021/04/08 13:27:39;;;;;;;1.43;1.23;;;3.70;99.90;;;;;;5122107;28;20198;-91
2021/04/08 13:30:16;;;;;;;2.13;1.10;;;3.70;99.90;;;;;;5119755;28;20564;-90
2021/04/08 13:32:47;;;;;;;1.67;1.03;;;3.70;99.90;;;;;;5120585;28;20213;-91
2021/04/08 13:35:21;;;;;;;1.87;1.10;;;3.80;99.90;;;;;;5121119;28;20608;-92